createdAt,value
2022-11-28T00:05:07.574Z,968.65
2022-11-28T00:15:07.635Z,968.80
2022-11-28T00:25:07.941Z,968.58
2022-11-28T00:35:07.984Z,968.81
2022-11-28T00:45:08.302Z,968.83
2022-11-28T00:55:08.383Z,968.61
2022-11-28T01:05:08.717Z,968.47
2022-11-28T01:15:08.776Z,968.77
2022-11-28T01:25:09.091Z,968.76
2022-11-28T01:35:09.159Z,968.63
2022-11-28T01:45:09.470Z,968.64
2022-11-28T01:55:09.553Z,968.59
2022-11-28T02:05:09.884Z,968.48
2022-11-28T02:15:09.950Z,968.38
2022-11-28T02:25:10.263Z,968.31
2022-11-28T02:35:10.332Z,968.12
2022-11-28T02:45:10.798Z,968.06
2022-11-28T02:55:10.766Z,967.96
2022-11-28T03:05:10.979Z,967.77
2022-11-28T03:15:11.211Z,967.65
2022-11-28T03:25:11.499Z,967.43
2022-11-28T03:35:11.325Z,967.47
2022-11-28T03:45:11.658Z,967.36
2022-11-28T03:55:11.722Z,967.24
2022-11-28T04:05:11.939Z,967.09
2022-11-28T04:15:11.988Z,967.20
2022-11-28T04:25:12.328Z,967.19
2022-11-28T04:35:12.388Z,967.42
2022-11-28T04:45:12.907Z,967.52
2022-11-28T04:55:12.747Z,967.77
2022-11-28T05:05:13.085Z,967.68
2022-11-28T05:15:13.319Z,967.52
2022-11-28T05:25:13.414Z,967.71
2022-11-28T05:35:13.464Z,967.65
2022-11-28T05:45:13.802Z,967.63
2022-11-28T05:55:13.866Z,967.58
2022-11-28T06:05:40.299Z,967.66
2022-11-28T06:15:15.176Z,967.49
2022-11-28T06:25:14.490Z,967.38
2022-11-28T06:35:14.712Z,967.43
2022-11-28T06:45:14.881Z,967.43
2022-11-28T06:55:14.831Z,967.44
2022-11-28T07:05:15.161Z,967.49
2022-11-28T07:15:15.219Z,967.58
2022-11-28T07:25:15.826Z,967.56
2022-11-28T07:35:15.678Z,967.54
2022-11-28T07:45:15.808Z,967.55
2022-11-28T07:55:15.996Z,967.54
2022-11-28T08:05:16.349Z,967.67
2022-11-28T08:15:16.480Z,967.61
2022-11-28T08:25:16.483Z,967.71
2022-11-28T08:35:16.650Z,967.66
2022-11-28T08:45:17.040Z,967.65
2022-11-28T08:55:19.932Z,967.68
2022-11-28T09:05:17.221Z,967.73
2022-11-28T09:15:17.385Z,967.85
2022-11-28T09:25:17.615Z,967.83
2022-11-28T09:35:17.786Z,967.83
2022-11-28T09:45:18.015Z,967.83
2022-11-28T09:55:18.186Z,967.83
2022-11-28T10:05:18.410Z,967.67
2022-11-28T10:15:18.588Z,967.59
2022-11-28T10:25:18.859Z,967.66
2022-11-28T10:35:19.304Z,967.72
2022-11-28T10:45:19.165Z,967.60
2022-11-28T10:55:19.351Z,967.49
2022-11-28T11:05:19.580Z,967.55
2022-11-28T11:15:19.745Z,967.43
2022-11-28T11:25:19.971Z,967.26
2022-11-28T11:35:20.129Z,967.41
2022-11-28T11:45:20.366Z,967.37
2022-11-28T11:55:20.551Z,967.36
2022-11-28T12:05:20.766Z,967.18
2022-11-28T12:15:20.929Z,967.03
2022-11-28T12:25:21.162Z,967.18
2022-11-28T12:35:21.329Z,967.11
2022-11-28T12:45:21.562Z,967.09
2022-11-28T12:55:21.731Z,966.99
2022-11-28T13:05:22.640Z,966.87
2022-11-28T13:15:22.195Z,966.79
2022-11-28T13:25:22.396Z,966.74
2022-11-28T13:35:22.565Z,966.73
2022-11-28T13:45:28.421Z,966.73
2022-11-28T13:55:23.982Z,966.70
2022-11-28T14:05:26.435Z,966.63
2022-11-28T14:15:23.325Z,966.64
2022-11-28T14:25:23.719Z,966.68
2022-11-28T14:35:23.668Z,966.69
2022-11-28T14:45:23.787Z,966.71
2022-11-28T14:55:24.233Z,966.59
2022-11-28T15:05:24.125Z,966.71
2022-11-28T15:15:24.289Z,966.58
2022-11-28T15:25:24.520Z,966.58
2022-11-28T15:35:24.692Z,966.67
2022-11-28T15:45:24.926Z,966.66
2022-11-28T15:55:25.297Z,966.55
2022-11-28T16:05:25.299Z,966.57
2022-11-28T16:15:25.465Z,966.62
2022-11-28T16:25:25.665Z,966.43
2022-11-28T16:35:25.847Z,966.46
2022-11-28T16:45:26.114Z,966.50
2022-11-28T16:55:26.062Z,966.62
2022-11-28T17:05:26.323Z,966.69
2022-11-28T17:15:26.891Z,966.79
2022-11-28T17:25:26.661Z,966.76
2022-11-28T17:35:27.139Z,966.77
2022-11-28T17:45:27.066Z,966.75
2022-11-28T17:55:27.200Z,966.74
2022-11-28T18:05:27.454Z,966.53
2022-11-28T18:15:27.529Z,966.61
2022-11-28T18:25:27.927Z,966.83
2022-11-28T18:35:27.880Z,966.74
2022-11-28T18:45:28.275Z,966.75
2022-11-28T18:55:28.114Z,966.66
2022-11-28T19:05:28.317Z,966.51
2022-11-28T19:15:28.697Z,966.73
2022-11-28T19:25:28.679Z,966.82
2022-11-28T19:35:28.854Z,966.84
2022-11-28T19:45:29.289Z,966.83
2022-11-28T19:55:29.498Z,966.96
2022-11-28T20:05:29.404Z,966.98
2022-11-28T20:15:29.555Z,967.01
2022-11-28T20:25:30.044Z,967.08
2022-11-28T20:35:30.008Z,967.13
2022-11-28T20:45:30.180Z,967.22
2022-11-28T20:55:30.252Z,967.30
2022-11-28T21:05:30.488Z,967.30
2022-11-28T21:15:30.673Z,967.24
2022-11-28T21:25:31.101Z,967.38
2022-11-28T21:35:31.044Z,967.36
2022-11-28T21:45:31.250Z,967.40
2022-11-28T21:55:31.261Z,967.25
2022-11-28T22:05:31.613Z,967.45
2022-11-28T22:15:31.556Z,967.30
2022-11-28T22:25:31.845Z,967.26
2022-11-28T22:35:31.983Z,967.23
2022-11-28T22:45:32.135Z,967.28
2022-11-28T22:55:32.354Z,967.36
2022-11-28T23:05:32.391Z,967.42
2022-11-28T23:15:32.592Z,967.41
2022-11-28T23:25:32.897Z,967.41
2022-11-28T23:35:32.859Z,967.36
2022-11-28T23:45:33.009Z,967.45
2022-11-28T23:55:33.116Z,967.49
